createdAt,value
2023-02-09T00:00:22.927Z,1036.0
2023-02-09T00:15:23.108Z,1036.0
2023-02-09T00:30:23.177Z,1036.0
2023-02-09T00:45:23.030Z,1036.0
2023-02-09T01:00:23.503Z,1036.0
2023-02-09T01:15:23.170Z,1036.0
2023-02-09T01:30:23.216Z,1036.0
2023-02-09T01:45:23.272Z,1036.0
2023-02-09T02:00:23.475Z,1036.0
2023-02-09T02:15:23.579Z,1036.0
2023-02-09T02:30:23.561Z,1036.0
2023-02-09T02:45:24.096Z,1036.0
2023-02-09T03:00:23.591Z,1036.0
2023-02-09T03:15:23.591Z,1036.0
2023-02-09T03:30:24.540Z,1036.0
2023-02-09T03:45:24.219Z,1036.0
2023-02-09T04:00:32.672Z,1036.0
2023-02-09T04:15:22.879Z,1036.0
2023-02-09T04:30:23.551Z,1036.0
2023-02-09T04:45:23.533Z,1036.0
2023-02-09T05:00:23.044Z,1036.0
2023-02-09T05:15:23.081Z,1036.0
2023-02-09T05:30:23.765Z,1036.0
2023-02-09T05:45:22.945Z,1036.0
2023-02-09T06:00:23.247Z,1036.0
2023-02-09T06:15:23.444Z,1036.0
2023-02-09T06:30:23.343Z,1036.0
2023-02-09T06:45:23.273Z,1036.0
2023-02-09T07:00:24.573Z,1036.0
2023-02-09T07:15:23.408Z,1036.7
2023-02-09T07:30:23.574Z,1037.0
2023-02-09T07:45:23.458Z,1037.0
2023-02-09T08:00:23.494Z,1037.0
2023-02-09T08:15:24.066Z,1037.0
2023-02-09T08:30:24.122Z,1037.0
2023-02-09T08:45:23.785Z,1037.0
2023-02-09T09:00:33.389Z,1037.0
2023-02-09T09:15:23.180Z,1037.0
2023-02-09T09:30:23.071Z,1037.0
2023-02-09T09:45:22.862Z,1037.0
2023-02-09T10:00:22.961Z,1037.0
2023-02-09T10:15:23.162Z,1037.0
2023-02-09T10:30:23.140Z,1037.0
2023-02-09T10:45:23.083Z,1037.0
2023-02-09T11:02:35.242Z,1036.3
2023-02-09T11:15:33.549Z,1036.0
2023-02-09T11:30:32.935Z,1036.0
2023-02-09T11:45:32.961Z,1036.0
2023-02-09T12:00:33.972Z,1036.0
2023-02-09T12:15:23.572Z,1035.5
2023-02-09T12:30:23.573Z,1035.0
2023-02-09T12:45:23.760Z,1035.0
2023-02-09T13:00:23.741Z,1035.0
2023-02-09T13:15:23.698Z,1035.0
2023-02-09T13:30:23.861Z,1035.0
2023-02-09T13:45:23.906Z,1035.0
2023-02-09T14:00:24.001Z,1035.0
2023-02-09T14:15:24.018Z,1035.0
2023-02-09T14:30:24.063Z,1035.0
2023-02-09T14:45:24.181Z,1035.0
2023-02-09T15:00:24.236Z,1035.0
2023-02-09T15:15:24.702Z,1035.0
2023-02-09T15:30:24.262Z,1035.0
2023-02-09T15:45:24.466Z,1035.0
2023-02-09T16:00:24.243Z,1035.0
2023-02-09T16:15:33.634Z,1035.7
2023-02-09T16:30:33.663Z,1036.0
2023-02-09T16:45:32.951Z,1036.0
2023-02-09T17:00:33.109Z,1036.0
2023-02-09T17:15:30.577Z,1036.7
2023-02-09T17:15:30.988Z,1036.7
2023-02-09T17:30:23.415Z,1036.7
2023-02-09T17:45:23.465Z,1037.0
2023-02-09T18:00:23.873Z,1037.0
2023-02-09T18:15:23.383Z,1037.0
2023-02-09T18:30:24.214Z,1037.3
2023-02-09T18:45:25.012Z,1038.0
2023-02-09T19:00:23.787Z,1037.7
2023-02-09T19:15:24.042Z,1038.0
2023-02-09T19:30:24.721Z,1038.0
2023-02-09T19:45:24.488Z,1038.0
2023-02-09T20:00:25.366Z,1038.0
2023-02-09T20:15:25.037Z,1038.0
2023-02-09T20:30:24.719Z,1038.0
2023-02-09T20:45:24.784Z,1038.0
2023-02-09T21:00:24.101Z,1038.0
2023-02-09T21:15:23.378Z,1038.0
2023-02-09T21:30:23.102Z,1038.7
2023-02-09T21:45:23.307Z,1039.0
2023-02-09T22:00:23.507Z,1039.0
2023-02-09T22:15:23.461Z,1039.0
2023-02-09T22:30:23.370Z,1039.0
2023-02-09T22:45:23.407Z,1039.0
2023-02-09T23:15:32.922Z,1039.0
2023-02-09T23:30:33.044Z,1040.0
2023-02-09T23:45:33.023Z,1040.0
